sensor_id;sensor_type;location;lat;lon;timestamp;P1;durP1;ratioP1;P2;durP2;ratioP2
15595;SDS011;7898;48.658;9.068;2022-12-18T00:02:02;46.03;;;20.87;;
15595;SDS011;7898;48.658;9.068;2022-12-18T00:04:29;48.87;;;21.97;;
15595;SDS011;7898;48.658;9.068;2022-12-18T00:06:57;48.20;;;21.13;;
15595;SDS011;7898;48.658;9.068;2022-12-18T00:09:24;44.13;;;20.40;;
15595;SDS011;7898;48.658;9.068;2022-12-18T00:11:51;45.53;;;20.53;;
15595;SDS011;7898;48.658;9.068;2022-12-18T00:14:18;41.17;;;19.17;;
15595;SDS011;7898;48.658;9.068;2022-12-18T00:16:45;42.10;;;18.93;;
15595;SDS011;7898;48.658;9.068;2022-12-18T00:19:13;46.27;;;21.13;;
15595;SDS011;7898;48.658;9.068;2022-12-18T00:21:40;46.60;;;19.97;;
15595;SDS011;7898;48.658;9.068;2022-12-18T00:24:10;41.60;;;18.93;;
15595;SDS011;7898;48.658;9.068;2022-12-18T00:26:38;48.90;;;20.47;;
15595;SDS011;7898;48.658;9.068;2022-12-18T00:29:07;41.17;;;17.60;;
15595;SDS011;7898;48.658;9.068;2022-12-18T00:31:36;52.10;;;21.03;;
15595;SDS011;7898;48.658;9.068;2022-12-18T00:34:04;43.90;;;17.13;;
15595;SDS011;7898;48.658;9.068;2022-12-18T00:36:31;44.03;;;20.40;;
15595;SDS011;7898;48.658;9.068;2022-12-18T00:39:00;47.00;;;18.37;;
15595;SDS011;7898;48.658;9.068;2022-12-18T00:41:30;41.47;;;18.77;;
15595;SDS011;7898;48.658;9.068;2022-12-18T00:44:15;35.77;;;14.23;;
15595;SDS011;7898;48.658;9.068;2022-12-18T00:46:43;36.97;;;17.30;;
15595;SDS011;7898;48.658;9.068;2022-12-18T00:49:13;34.00;;;16.90;;
15595;SDS011;7898;48.658;9.068;2022-12-18T00:51:41;39.30;;;16.37;;
15595;SDS011;7898;48.658;9.068;2022-12-18T00:54:09;49.50;;;17.73;;
15595;SDS011;7898;48.658;9.068;2022-12-18T00:56:37;45.90;;;20.67;;
15595;SDS011;7898;48.658;9.068;2022-12-18T00:59:05;42.30;;;17.90;;
15595;SDS011;7898;48.658;9.068;2022-12-18T01:01:32;40.80;;;19.57;;
15595;SDS011;7898;48.658;9.068;2022-12-18T01:04:00;47.43;;;17.60;;
15595;SDS011;7898;48.658;9.068;2022-12-18T01:06:27;46.80;;;18.20;;
15595;SDS011;7898;48.658;9.068;2022-12-18T01:08:54;37.13;;;16.47;;
15595;SDS011;7898;48.658;9.068;2022-12-18T01:11:21;44.60;;;17.70;;
15595;SDS011;7898;48.658;9.068;2022-12-18T01:13:50;29.97;;;14.63;;
15595;SDS011;7898;48.658;9.068;2022-12-18T01:16:18;32.90;;;13.53;;
15595;SDS011;7898;48.658;9.068;2022-12-18T01:18:44;39.13;;;17.63;;
15595;SDS011;7898;48.658;9.068;2022-12-18T01:21:13;40.80;;;17.20;;
15595;SDS011;7898;48.658;9.068;2022-12-18T01:23:41;44.77;;;17.37;;
15595;SDS011;7898;48.658;9.068;2022-12-18T01:26:12;39.50;;;16.77;;
15595;SDS011;7898;48.658;9.068;2022-12-18T01:28:40;40.93;;;18.43;;
15595;SDS011;7898;48.658;9.068;2022-12-18T01:31:15;32.30;;;16.03;;
15595;SDS011;7898;48.658;9.068;2022-12-18T01:33:44;38.63;;;15.43;;
15595;SDS011;7898;48.658;9.068;2022-12-18T01:36:15;33.20;;;15.17;;
15595;SDS011;7898;48.658;9.068;2022-12-18T01:38:43;44.37;;;18.97;;
15595;SDS011;7898;48.658;9.068;2022-12-18T01:41:10;40.57;;;17.97;;
15595;SDS011;7898;48.658;9.068;2022-12-18T01:43:40;37.83;;;16.37;;
15595;SDS011;7898;48.658;9.068;2022-12-18T01:46:09;45.40;;;19.60;;
15595;SDS011;7898;48.658;9.068;2022-12-18T01:48:37;37.43;;;17.20;;
15595;SDS011;7898;48.658;9.068;2022-12-18T01:51:05;41.00;;;17.60;;
15595;SDS011;7898;48.658;9.068;2022-12-18T01:53:34;36.93;;;18.40;;
15595;SDS011;7898;48.658;9.068;2022-12-18T01:56:02;41.77;;;18.03;;
15595;SDS011;7898;48.658;9.068;2022-12-18T01:58:30;17.77;;;7.70;;
15595;SDS011;7898;48.658;9.068;2022-12-18T02:01:05;27.60;;;13.60;;
15595;SDS011;7898;48.658;9.068;2022-12-18T02:03:32;44.13;;;16.40;;
15595;SDS011;7898;48.658;9.068;2022-12-18T02:06:02;36.67;;;17.50;;
15595;SDS011;7898;48.658;9.068;2022-12-18T02:08:37;41.67;;;19.13;;
15595;SDS011;7898;48.658;9.068;2022-12-18T02:11:10;46.43;;;19.03;;
15595;SDS011;7898;48.658;9.068;2022-12-18T02:13:46;30.90;;;15.13;;
15595;SDS011;7898;48.658;9.068;2022-12-18T02:16:20;42.17;;;17.97;;
15595;SDS011;7898;48.658;9.068;2022-12-18T02:18:53;54.00;;;19.37;;
15595;SDS011;7898;48.658;9.068;2022-12-18T02:21:28;34.50;;;16.90;;
15595;SDS011;7898;48.658;9.068;2022-12-18T02:24:07;35.87;;;15.67;;
15595;SDS011;7898;48.658;9.068;2022-12-18T02:26:50;45.10;;;15.43;;
15595;SDS011;7898;48.658;9.068;2022-12-18T02:29:21;38.40;;;17.00;;
15595;SDS011;7898;48.658;9.068;2022-12-18T02:31:52;39.63;;;15.77;;
15595;SDS011;7898;48.658;9.068;2022-12-18T02:34:30;37.30;;;15.97;;
15595;SDS011;7898;48.658;9.068;2022-12-18T02:37:01;36.67;;;17.83;;
15595;SDS011;7898;48.658;9.068;2022-12-18T02:39:30;37.53;;;16.73;;
15595;SDS011;7898;48.658;9.068;2022-12-18T02:42:00;48.33;;;21.47;;
15595;SDS011;7898;48.658;9.068;2022-12-18T02:44:33;36.17;;;18.10;;
15595;SDS011;7898;48.658;9.068;2022-12-18T02:47:00;40.33;;;18.60;;
15595;SDS011;7898;48.658;9.068;2022-12-18T02:49:30;40.63;;;17.53;;
15595;SDS011;7898;48.658;9.068;2022-12-18T02:52:05;44.13;;;19.03;;
15595;SDS011;7898;48.658;9.068;2022-12-18T02:54:46;41.67;;;15.97;;
15595;SDS011;7898;48.658;9.068;2022-12-18T02:57:23;32.77;;;16.07;;
15595;SDS011;7898;48.658;9.068;2022-12-18T02:59:58;33.97;;;16.43;;
15595;SDS011;7898;48.658;9.068;2022-12-18T03:02:29;42.77;;;16.67;;
15595;SDS011;7898;48.658;9.068;2022-12-18T03:05:05;41.13;;;17.13;;
15595;SDS011;7898;48.658;9.068;2022-12-18T03:07:39;39.20;;;17.93;;
15595;SDS011;7898;48.658;9.068;2022-12-18T03:10:12;43.13;;;19.07;;
15595;SDS011;7898;48.658;9.068;2022-12-18T03:12:44;34.07;;;16.20;;
15595;SDS011;7898;48.658;9.068;2022-12-18T03:15:16;41.20;;;18.57;;
15595;SDS011;7898;48.658;9.068;2022-12-18T03:17:48;30.67;;;14.27;;
15595;SDS011;7898;48.658;9.068;2022-12-18T03:20:19;34.23;;;15.90;;
15595;SDS011;7898;48.658;9.068;2022-12-18T03:22:50;35.50;;;16.40;;
15595;SDS011;7898;48.658;9.068;2022-12-18T03:25:20;36.73;;;16.83;;
15595;SDS011;7898;48.658;9.068;2022-12-18T03:27:51;33.17;;;13.27;;
15595;SDS011;7898;48.658;9.068;2022-12-18T03:30:22;16.77;;;9.77;;
15595;SDS011;7898;48.658;9.068;2022-12-18T03:32:52;25.90;;;14.13;;
15595;SDS011;7898;48.658;9.068;2022-12-18T03:35:26;33.70;;;16.20;;
15595;SDS011;7898;48.658;9.068;2022-12-18T03:37:56;28.90;;;12.37;;
15595;SDS011;7898;48.658;9.068;2022-12-18T03:40:25;32.53;;;13.93;;
15595;SDS011;7898;48.658;9.068;2022-12-18T03:42:59;34.17;;;16.33;;
15595;SDS011;7898;48.658;9.068;2022-12-18T03:45:31;31.17;;;14.77;;
15595;SDS011;7898;48.658;9.068;2022-12-18T03:48:02;39.43;;;16.67;;
15595;SDS011;7898;48.658;9.068;2022-12-18T03:50:37;32.57;;;16.40;;
15595;SDS011;7898;48.658;9.068;2022-12-18T03:53:17;32.63;;;15.27;;
15595;SDS011;7898;48.658;9.068;2022-12-18T03:55:50;22.63;;;10.70;;
15595;SDS011;7898;48.658;9.068;2022-12-18T03:58:20;35.40;;;16.47;;
15595;SDS011;7898;48.658;9.068;2022-12-18T04:00:49;32.50;;;14.50;;
15595;SDS011;7898;48.658;9.068;2022-12-18T04:03:19;36.57;;;16.57;;
15595;SDS011;7898;48.658;9.068;2022-12-18T04:05:48;35.73;;;16.17;;
15595;SDS011;7898;48.658;9.068;2022-12-18T04:08:17;37.87;;;16.67;;
15595;SDS011;7898;48.658;9.068;2022-12-18T04:10:44;29.03;;;14.27;;
15595;SDS011;7898;48.658;9.068;2022-12-18T04:13:11;36.40;;;16.80;;
15595;SDS011;7898;48.658;9.068;2022-12-18T04:15:40;37.77;;;15.47;;
15595;SDS011;7898;48.658;9.068;2022-12-18T04:18:07;34.00;;;17.10;;
15595;SDS011;7898;48.658;9.068;2022-12-18T04:20:34;31.43;;;15.83;;
15595;SDS011;7898;48.658;9.068;2022-12-18T04:23:01;32.67;;;16.33;;
15595;SDS011;7898;48.658;9.068;2022-12-18T04:25:27;41.40;;;15.30;;
15595;SDS011;7898;48.658;9.068;2022-12-18T04:27:54;40.73;;;16.53;;
15595;SDS011;7898;48.658;9.068;2022-12-18T04:30:21;35.30;;;15.10;;
15595;SDS011;7898;48.658;9.068;2022-12-18T04:32:49;33.80;;;14.40;;
15595;SDS011;7898;48.658;9.068;2022-12-18T04:35:17;42.73;;;16.40;;
15595;SDS011;7898;48.658;9.068;2022-12-18T04:37:44;37.00;;;17.07;;
15595;SDS011;7898;48.658;9.068;2022-12-18T04:40:11;26.50;;;13.30;;
15595;SDS011;7898;48.658;9.068;2022-12-18T04:42:38;28.90;;;13.07;;
15595;SDS011;7898;48.658;9.068;2022-12-18T04:45:06;36.67;;;16.57;;
15595;SDS011;7898;48.658;9.068;2022-12-18T04:47:34;35.60;;;14.70;;
15595;SDS011;7898;48.658;9.068;2022-12-18T04:50:02;33.50;;;16.13;;
15595;SDS011;7898;48.658;9.068;2022-12-18T04:52:29;36.37;;;15.07;;
15595;SDS011;7898;48.658;9.068;2022-12-18T04:54:59;34.93;;;16.77;;
15595;SDS011;7898;48.658;9.068;2022-12-18T04:57:26;37.10;;;13.73;;
15595;SDS011;7898;48.658;9.068;2022-12-18T04:59:53;35.03;;;15.40;;
15595;SDS011;7898;48.658;9.068;2022-12-18T05:02:19;34.80;;;16.53;;
15595;SDS011;7898;48.658;9.068;2022-12-18T05:04:46;38.83;;;14.43;;
15595;SDS011;7898;48.658;9.068;2022-12-18T05:07:14;34.10;;;15.83;;
15595;SDS011;7898;48.658;9.068;2022-12-18T05:09:41;34.87;;;15.97;;
15595;SDS011;7898;48.658;9.068;2022-12-18T05:12:08;32.13;;;15.00;;
15595;SDS011;7898;48.658;9.068;2022-12-18T05:14:35;27.50;;;13.90;;
15595;SDS011;7898;48.658;9.068;2022-12-18T05:17:02;33.37;;;15.27;;
15595;SDS011;7898;48.658;9.068;2022-12-18T05:19:29;28.73;;;12.00;;
15595;SDS011;7898;48.658;9.068;2022-12-18T05:21:56;38.13;;;14.30;;
15595;SDS011;7898;48.658;9.068;2022-12-18T05:24:24;32.27;;;15.53;;
15595;SDS011;7898;48.658;9.068;2022-12-18T05:26:51;36.80;;;15.43;;
15595;SDS011;7898;48.658;9.068;2022-12-18T05:29:18;42.27;;;15.60;;
15595;SDS011;7898;48.658;9.068;2022-12-18T05:31:45;38.47;;;15.67;;
15595;SDS011;7898;48.658;9.068;2022-12-18T05:34:12;33.27;;;15.13;;
15595;SDS011;7898;48.658;9.068;2022-12-18T05:36:38;38.43;;;16.63;;
15595;SDS011;7898;48.658;9.068;2022-12-18T05:39:05;31.57;;;13.47;;
15595;SDS011;7898;48.658;9.068;2022-12-18T05:41:34;34.03;;;16.13;;
15595;SDS011;7898;48.658;9.068;2022-12-18T05:44:01;43.00;;;16.27;;
15595;SDS011;7898;48.658;9.068;2022-12-18T05:46:28;26.80;;;12.63;;
15595;SDS011;7898;48.658;9.068;2022-12-18T05:48:58;34.83;;;15.17;;
15595;SDS011;7898;48.658;9.068;2022-12-18T05:51:26;37.50;;;16.33;;
15595;SDS011;7898;48.658;9.068;2022-12-18T05:53:53;30.43;;;15.70;;
15595;SDS011;7898;48.658;9.068;2022-12-18T05:56:20;38.13;;;16.37;;
15595;SDS011;7898;48.658;9.068;2022-12-18T05:58:52;23.40;;;11.83;;
15595;SDS011;7898;48.658;9.068;2022-12-18T06:01:20;22.00;;;11.10;;
15595;SDS011;7898;48.658;9.068;2022-12-18T06:03:49;26.30;;;12.53;;
15595;SDS011;7898;48.658;9.068;2022-12-18T06:06:17;29.70;;;14.13;;
15595;SDS011;7898;48.658;9.068;2022-12-18T06:08:45;32.23;;;12.80;;
15595;SDS011;7898;48.658;9.068;2022-12-18T06:11:12;24.43;;;11.17;;
15595;SDS011;7898;48.658;9.068;2022-12-18T06:13:39;41.77;;;16.40;;
15595;SDS011;7898;48.658;9.068;2022-12-18T06:16:07;35.47;;;14.27;;
15595;SDS011;7898;48.658;9.068;2022-12-18T06:18:34;33.23;;;14.73;;
15595;SDS011;7898;48.658;9.068;2022-12-18T06:21:06;29.30;;;13.63;;
15595;SDS011;7898;48.658;9.068;2022-12-18T06:23:33;27.53;;;13.00;;
15595;SDS011;7898;48.658;9.068;2022-12-18T06:26:03;35.23;;;13.00;;
15595;SDS011;7898;48.658;9.068;2022-12-18T06:28:31;33.97;;;13.77;;
15595;SDS011;7898;48.658;9.068;2022-12-18T06:30:58;30.13;;;13.50;;
15595;SDS011;7898;48.658;9.068;2022-12-18T06:33:27;23.80;;;11.83;;
15595;SDS011;7898;48.658;9.068;2022-12-18T06:35:54;28.50;;;10.90;;
15595;SDS011;7898;48.658;9.068;2022-12-18T06:38:21;26.40;;;13.30;;
15595;SDS011;7898;48.658;9.068;2022-12-18T06:40:47;29.10;;;12.23;;
15595;SDS011;7898;48.658;9.068;2022-12-18T06:43:14;26.93;;;12.60;;
15595;SDS011;7898;48.658;9.068;2022-12-18T06:45:41;28.90;;;10.87;;
15595;SDS011;7898;48.658;9.068;2022-12-18T06:48:08;27.77;;;12.23;;
15595;SDS011;7898;48.658;9.068;2022-12-18T06:50:36;21.97;;;9.40;;
15595;SDS011;7898;48.658;9.068;2022-12-18T06:53:03;12.70;;;7.67;;
15595;SDS011;7898;48.658;9.068;2022-12-18T06:55:30;26.53;;;12.57;;
15595;SDS011;7898;48.658;9.068;2022-12-18T06:57:57;14.90;;;7.40;;
15595;SDS011;7898;48.658;9.068;2022-12-18T07:00:24;27.67;;;12.87;;
15595;SDS011;7898;48.658;9.068;2022-12-18T07:02:50;29.63;;;12.47;;
15595;SDS011;7898;48.658;9.068;2022-12-18T07:05:17;29.40;;;11.17;;
15595;SDS011;7898;48.658;9.068;2022-12-18T07:07:46;23.57;;;12.43;;
15595;SDS011;7898;48.658;9.068;2022-12-18T07:10:12;31.47;;;16.20;;
15595;SDS011;7898;48.658;9.068;2022-12-18T07:12:39;21.63;;;10.53;;
15595;SDS011;7898;48.658;9.068;2022-12-18T07:15:06;24.70;;;11.60;;
15595;SDS011;7898;48.658;9.068;2022-12-18T07:17:34;27.20;;;12.43;;
15595;SDS011;7898;48.658;9.068;2022-12-18T07:20:01;23.03;;;10.93;;
15595;SDS011;7898;48.658;9.068;2022-12-18T07:22:28;13.33;;;7.23;;
15595;SDS011;7898;48.658;9.068;2022-12-18T07:24:56;31.30;;;12.67;;
15595;SDS011;7898;48.658;9.068;2022-12-18T07:27:23;27.33;;;13.07;;
15595;SDS011;7898;48.658;9.068;2022-12-18T07:29:50;21.03;;;11.43;;
15595;SDS011;7898;48.658;9.068;2022-12-18T07:32:17;30.40;;;13.10;;
15595;SDS011;7898;48.658;9.068;2022-12-18T07:34:44;25.43;;;12.83;;
15595;SDS011;7898;48.658;9.068;2022-12-18T07:37:11;32.47;;;13.40;;
15595;SDS011;7898;48.658;9.068;2022-12-18T07:39:38;29.07;;;13.23;;
15595;SDS011;7898;48.658;9.068;2022-12-18T07:42:06;30.90;;;14.40;;
15595;SDS011;7898;48.658;9.068;2022-12-18T07:44:50;28.17;;;12.17;;
15595;SDS011;7898;48.658;9.068;2022-12-18T07:47:17;45.63;;;22.00;;
15595;SDS011;7898;48.658;9.068;2022-12-18T07:49:44;38.23;;;17.97;;
15595;SDS011;7898;48.658;9.068;2022-12-18T07:52:11;38.63;;;17.57;;
15595;SDS011;7898;48.658;9.068;2022-12-18T07:54:38;42.93;;;19.70;;
15595;SDS011;7898;48.658;9.068;2022-12-18T07:57:07;43.67;;;20.57;;
15595;SDS011;7898;48.658;9.068;2022-12-18T07:59:34;37.87;;;20.67;;
15595;SDS011;7898;48.658;9.068;2022-12-18T08:02:01;37.57;;;17.57;;
15595;SDS011;7898;48.658;9.068;2022-12-18T08:04:28;40.03;;;16.53;;
15595;SDS011;7898;48.658;9.068;2022-12-18T08:06:55;41.90;;;19.80;;
15595;SDS011;7898;48.658;9.068;2022-12-18T08:09:22;51.80;;;22.73;;
15595;SDS011;7898;48.658;9.068;2022-12-18T08:11:49;94.77;;;40.73;;
15595;SDS011;7898;48.658;9.068;2022-12-18T08:14:17;178.53;;;70.93;;
15595;SDS011;7898;48.658;9.068;2022-12-18T08:16:44;47.43;;;23.63;;
15595;SDS011;7898;48.658;9.068;2022-12-18T08:19:11;30.60;;;16.73;;
15595;SDS011;7898;48.658;9.068;2022-12-18T08:21:38;33.03;;;17.23;;
15595;SDS011;7898;48.658;9.068;2022-12-18T08:24:08;36.10;;;17.57;;
15595;SDS011;7898;48.658;9.068;2022-12-18T08:26:36;30.10;;;17.77;;
15595;SDS011;7898;48.658;9.068;2022-12-18T08:29:05;31.47;;;17.57;;
15595;SDS011;7898;48.658;9.068;2022-12-18T08:31:34;35.77;;;18.13;;
15595;SDS011;7898;48.658;9.068;2022-12-18T08:34:01;33.07;;;16.33;;
15595;SDS011;7898;48.658;9.068;2022-12-18T08:36:28;33.90;;;18.60;;
15595;SDS011;7898;48.658;9.068;2022-12-18T08:38:54;35.80;;;24.87;;
15595;SDS011;7898;48.658;9.068;2022-12-18T08:41:22;28.83;;;17.63;;
15595;SDS011;7898;48.658;9.068;2022-12-18T08:43:49;34.47;;;18.33;;
15595;SDS011;7898;48.658;9.068;2022-12-18T08:46:35;34.80;;;18.07;;
15595;SDS011;7898;48.658;9.068;2022-12-18T08:49:04;33.57;;;17.53;;
15595;SDS011;7898;48.658;9.068;2022-12-18T08:51:31;31.27;;;18.37;;
15595;SDS011;7898;48.658;9.068;2022-12-18T08:53:58;33.07;;;18.10;;
15595;SDS011;7898;48.658;9.068;2022-12-18T08:56:25;32.03;;;18.17;;
15595;SDS011;7898;48.658;9.068;2022-12-18T08:58:52;32.10;;;17.67;;
15595;SDS011;7898;48.658;9.068;2022-12-18T09:01:20;33.20;;;18.20;;
15595;SDS011;7898;48.658;9.068;2022-12-18T09:03:49;31.60;;;18.23;;
15595;SDS011;7898;48.658;9.068;2022-12-18T09:06:17;34.37;;;18.30;;
15595;SDS011;7898;48.658;9.068;2022-12-18T09:08:47;32.73;;;19.57;;
15595;SDS011;7898;48.658;9.068;2022-12-18T09:11:14;31.73;;;17.97;;
15595;SDS011;7898;48.658;9.068;2022-12-18T09:13:44;35.30;;;18.77;;
15595;SDS011;7898;48.658;9.068;2022-12-18T09:16:11;33.30;;;19.93;;
15595;SDS011;7898;48.658;9.068;2022-12-18T09:18:38;33.97;;;20.47;;
15595;SDS011;7898;48.658;9.068;2022-12-18T09:21:10;32.90;;;20.73;;
15595;SDS011;7898;48.658;9.068;2022-12-18T09:23:38;35.40;;;21.60;;
15595;SDS011;7898;48.658;9.068;2022-12-18T09:26:06;36.00;;;22.13;;
15595;SDS011;7898;48.658;9.068;2022-12-18T09:28:33;41.70;;;22.10;;
15595;SDS011;7898;48.658;9.068;2022-12-18T09:31:03;36.00;;;21.43;;
15595;SDS011;7898;48.658;9.068;2022-12-18T09:33:32;38.50;;;21.40;;
15595;SDS011;7898;48.658;9.068;2022-12-18T09:36:00;38.83;;;22.60;;
15595;SDS011;7898;48.658;9.068;2022-12-18T09:38:29;40.07;;;22.50;;
15595;SDS011;7898;48.658;9.068;2022-12-18T09:40:57;36.13;;;21.70;;
15595;SDS011;7898;48.658;9.068;2022-12-18T09:43:26;39.23;;;21.33;;
15595;SDS011;7898;48.658;9.068;2022-12-18T09:45:56;41.67;;;23.97;;
15595;SDS011;7898;48.658;9.068;2022-12-18T09:48:28;38.10;;;20.87;;
15595;SDS011;7898;48.658;9.068;2022-12-18T09:51:00;38.23;;;21.27;;
15595;SDS011;7898;48.658;9.068;2022-12-18T09:53:34;37.97;;;20.73;;
15595;SDS011;7898;48.658;9.068;2022-12-18T09:56:05;40.57;;;22.70;;
15595;SDS011;7898;48.658;9.068;2022-12-18T09:58:34;38.03;;;21.83;;
15595;SDS011;7898;48.658;9.068;2022-12-18T10:01:09;37.03;;;21.10;;
15595;SDS011;7898;48.658;9.068;2022-12-18T10:03:36;40.13;;;23.17;;
15595;SDS011;7898;48.658;9.068;2022-12-18T10:06:05;42.70;;;22.60;;
15595;SDS011;7898;48.658;9.068;2022-12-18T10:08:40;43.40;;;22.40;;
15595;SDS011;7898;48.658;9.068;2022-12-18T10:11:17;39.47;;;22.43;;
15595;SDS011;7898;48.658;9.068;2022-12-18T10:13:56;36.87;;;22.90;;
15595;SDS011;7898;48.658;9.068;2022-12-18T10:16:29;49.13;;;27.93;;
15595;SDS011;7898;48.658;9.068;2022-12-18T10:19:06;44.60;;;24.37;;
15595;SDS011;7898;48.658;9.068;2022-12-18T10:21:45;37.87;;;21.73;;
15595;SDS011;7898;48.658;9.068;2022-12-18T10:24:26;38.47;;;21.93;;
15595;SDS011;7898;48.658;9.068;2022-12-18T10:26:59;48.43;;;26.93;;
15595;SDS011;7898;48.658;9.068;2022-12-18T10:29:37;56.03;;;28.93;;
15595;SDS011;7898;48.658;9.068;2022-12-18T10:32:04;65.20;;;32.10;;
15595;SDS011;7898;48.658;9.068;2022-12-18T10:34:31;59.67;;;30.23;;
15595;SDS011;7898;48.658;9.068;2022-12-18T10:36:59;52.27;;;29.17;;
15595;SDS011;7898;48.658;9.068;2022-12-18T10:39:31;53.00;;;30.60;;
15595;SDS011;7898;48.658;9.068;2022-12-18T10:42:09;55.73;;;31.40;;
15595;SDS011;7898;48.658;9.068;2022-12-18T10:44:38;51.37;;;28.20;;
15595;SDS011;7898;48.658;9.068;2022-12-18T10:47:06;50.40;;;28.33;;
15595;SDS011;7898;48.658;9.068;2022-12-18T10:49:39;49.17;;;28.10;;
15595;SDS011;7898;48.658;9.068;2022-12-18T10:52:14;45.20;;;26.57;;
15595;SDS011;7898;48.658;9.068;2022-12-18T10:54:48;46.63;;;25.63;;
15595;SDS011;7898;48.658;9.068;2022-12-18T10:57:20;61.30;;;27.97;;
15595;SDS011;7898;48.658;9.068;2022-12-18T10:59:58;47.07;;;24.80;;
15595;SDS011;7898;48.658;9.068;2022-12-18T11:02:27;50.27;;;24.27;;
15595;SDS011;7898;48.658;9.068;2022-12-18T11:05:00;42.20;;;21.87;;
15595;SDS011;7898;48.658;9.068;2022-12-18T11:07:35;49.30;;;24.87;;
15595;SDS011;7898;48.658;9.068;2022-12-18T11:10:17;43.00;;;22.17;;
15595;SDS011;7898;48.658;9.068;2022-12-18T11:12:45;36.70;;;19.80;;
15595;SDS011;7898;48.658;9.068;2022-12-18T11:15:16;33.97;;;17.37;;
15595;SDS011;7898;48.658;9.068;2022-12-18T11:17:47;34.23;;;17.37;;
15595;SDS011;7898;48.658;9.068;2022-12-18T11:20:23;37.17;;;17.37;;
15595;SDS011;7898;48.658;9.068;2022-12-18T11:22:58;39.40;;;20.73;;
15595;SDS011;7898;48.658;9.068;2022-12-18T11:25:28;35.63;;;18.67;;
15595;SDS011;7898;48.658;9.068;2022-12-18T11:27:56;32.03;;;17.77;;
15595;SDS011;7898;48.658;9.068;2022-12-18T11:30:26;36.07;;;17.87;;
15595;SDS011;7898;48.658;9.068;2022-12-18T11:33:01;37.30;;;17.87;;
15595;SDS011;7898;48.658;9.068;2022-12-18T11:35:35;34.90;;;16.13;;
15595;SDS011;7898;48.658;9.068;2022-12-18T11:38:12;33.37;;;16.63;;
15595;SDS011;7898;48.658;9.068;2022-12-18T11:40:47;32.10;;;16.03;;
15595;SDS011;7898;48.658;9.068;2022-12-18T11:43:20;38.30;;;17.53;;
15595;SDS011;7898;48.658;9.068;2022-12-18T11:45:53;37.43;;;18.23;;
15595;SDS011;7898;48.658;9.068;2022-12-18T11:48:23;36.30;;;17.63;;
15595;SDS011;7898;48.658;9.068;2022-12-18T11:50:53;31.40;;;15.30;;
15595;SDS011;7898;48.658;9.068;2022-12-18T11:53:22;29.77;;;15.90;;
15595;SDS011;7898;48.658;9.068;2022-12-18T11:55:59;35.10;;;16.90;;
15595;SDS011;7898;48.658;9.068;2022-12-18T11:58:34;31.40;;;16.00;;
15595;SDS011;7898;48.658;9.068;2022-12-18T12:01:14;35.60;;;16.60;;
15595;SDS011;7898;48.658;9.068;2022-12-18T12:03:54;33.00;;;17.37;;
15595;SDS011;7898;48.658;9.068;2022-12-18T12:06:39;31.07;;;15.30;;
15595;SDS011;7898;48.658;9.068;2022-12-18T12:09:14;30.87;;;14.77;;
15595;SDS011;7898;48.658;9.068;2022-12-18T12:11:53;30.40;;;16.23;;
15595;SDS011;7898;48.658;9.068;2022-12-18T12:14:37;34.27;;;16.67;;
15595;SDS011;7898;48.658;9.068;2022-12-18T12:17:15;35.17;;;18.07;;
15595;SDS011;7898;48.658;9.068;2022-12-18T12:19:48;40.60;;;17.87;;
15595;SDS011;7898;48.658;9.068;2022-12-18T12:22:24;34.27;;;18.00;;
15595;SDS011;7898;48.658;9.068;2022-12-18T12:25:02;33.73;;;16.97;;
15595;SDS011;7898;48.658;9.068;2022-12-18T12:27:43;33.77;;;17.30;;
15595;SDS011;7898;48.658;9.068;2022-12-18T12:30:18;31.87;;;16.13;;
15595;SDS011;7898;48.658;9.068;2022-12-18T12:32:50;33.97;;;16.43;;
15595;SDS011;7898;48.658;9.068;2022-12-18T12:35:29;35.23;;;16.87;;
15595;SDS011;7898;48.658;9.068;2022-12-18T12:38:06;29.73;;;16.00;;
15595;SDS011;7898;48.658;9.068;2022-12-18T12:40:37;31.93;;;15.67;;
15595;SDS011;7898;48.658;9.068;2022-12-18T12:43:14;32.63;;;16.47;;
15595;SDS011;7898;48.658;9.068;2022-12-18T12:45:47;33.73;;;17.27;;
15595;SDS011;7898;48.658;9.068;2022-12-18T12:48:19;31.80;;;15.57;;
15595;SDS011;7898;48.658;9.068;2022-12-18T12:50:54;34.50;;;17.00;;
15595;SDS011;7898;48.658;9.068;2022-12-18T12:53:25;31.77;;;16.93;;
15595;SDS011;7898;48.658;9.068;2022-12-18T12:55:56;34.23;;;17.67;;
15595;SDS011;7898;48.658;9.068;2022-12-18T12:58:28;33.87;;;16.67;;
15595;SDS011;7898;48.658;9.068;2022-12-18T13:01:01;32.17;;;16.17;;
15595;SDS011;7898;48.658;9.068;2022-12-18T13:03:41;32.90;;;16.43;;
15595;SDS011;7898;48.658;9.068;2022-12-18T13:06:16;34.27;;;17.30;;
15595;SDS011;7898;48.658;9.068;2022-12-18T13:08:52;32.03;;;16.60;;
15595;SDS011;7898;48.658;9.068;2022-12-18T13:11:28;31.93;;;16.30;;
15595;SDS011;7898;48.658;9.068;2022-12-18T13:14:21;31.40;;;16.50;;
15595;SDS011;7898;48.658;9.068;2022-12-18T13:20:03;34.50;;;17.27;;
15595;SDS011;7898;48.658;9.068;2022-12-18T13:22:39;34.77;;;17.23;;
15595;SDS011;7898;48.658;9.068;2022-12-18T13:25:27;38.77;;;19.87;;
15595;SDS011;7898;48.658;9.068;2022-12-18T13:28:00;37.47;;;18.77;;
15595;SDS011;7898;48.658;9.068;2022-12-18T13:30:43;37.60;;;17.63;;
15595;SDS011;7898;48.658;9.068;2022-12-18T13:33:37;33.00;;;16.70;;
15595;SDS011;7898;48.658;9.068;2022-12-18T13:36:16;31.47;;;17.17;;
15595;SDS011;7898;48.658;9.068;2022-12-18T13:39:09;31.73;;;15.63;;
15595;SDS011;7898;48.658;9.068;2022-12-18T13:41:41;34.70;;;17.27;;
15595;SDS011;7898;48.658;9.068;2022-12-18T13:44:10;38.70;;;18.63;;
15595;SDS011;7898;48.658;9.068;2022-12-18T13:46:43;38.47;;;18.67;;
15595;SDS011;7898;48.658;9.068;2022-12-18T13:49:18;33.33;;;17.53;;
15595;SDS011;7898;48.658;9.068;2022-12-18T13:51:49;36.67;;;18.20;;
15595;SDS011;7898;48.658;9.068;2022-12-18T13:54:18;34.97;;;17.13;;
15595;SDS011;7898;48.658;9.068;2022-12-18T13:56:48;39.50;;;17.77;;
15595;SDS011;7898;48.658;9.068;2022-12-18T13:59:16;34.93;;;17.93;;
15595;SDS011;7898;48.658;9.068;2022-12-18T14:01:47;38.00;;;17.47;;
15595;SDS011;7898;48.658;9.068;2022-12-18T14:04:18;36.83;;;18.03;;
15595;SDS011;7898;48.658;9.068;2022-12-18T14:06:47;34.33;;;17.37;;
15595;SDS011;7898;48.658;9.068;2022-12-18T14:09:18;37.87;;;17.37;;
15595;SDS011;7898;48.658;9.068;2022-12-18T14:11:49;38.80;;;18.10;;
15595;SDS011;7898;48.658;9.068;2022-12-18T14:14:17;31.23;;;15.13;;
15595;SDS011;7898;48.658;9.068;2022-12-18T14:16:46;33.07;;;16.57;;
15595;SDS011;7898;48.658;9.068;2022-12-18T14:19:14;42.57;;;17.87;;
15595;SDS011;7898;48.658;9.068;2022-12-18T14:21:47;40.43;;;18.93;;
15595;SDS011;7898;48.658;9.068;2022-12-18T14:24:16;30.33;;;14.30;;
15595;SDS011;7898;48.658;9.068;2022-12-18T14:26:44;37.33;;;17.23;;
15595;SDS011;7898;48.658;9.068;2022-12-18T14:29:19;44.83;;;19.40;;
15595;SDS011;7898;48.658;9.068;2022-12-18T14:34:32;38.30;;;18.43;;
15595;SDS011;7898;48.658;9.068;2022-12-18T14:36:59;39.67;;;18.70;;
15595;SDS011;7898;48.658;9.068;2022-12-18T14:39:26;41.13;;;19.90;;
15595;SDS011;7898;48.658;9.068;2022-12-18T14:41:53;45.10;;;20.23;;
15595;SDS011;7898;48.658;9.068;2022-12-18T14:44:20;44.97;;;18.37;;
15595;SDS011;7898;48.658;9.068;2022-12-18T14:46:48;39.20;;;18.47;;
15595;SDS011;7898;48.658;9.068;2022-12-18T14:49:23;43.83;;;21.43;;
15595;SDS011;7898;48.658;9.068;2022-12-18T14:51:52;47.37;;;20.83;;
15595;SDS011;7898;48.658;9.068;2022-12-18T14:54:20;44.83;;;20.23;;
15595;SDS011;7898;48.658;9.068;2022-12-18T14:56:49;45.47;;;20.20;;
15595;SDS011;7898;48.658;9.068;2022-12-18T14:59:23;44.67;;;21.03;;
15595;SDS011;7898;48.658;9.068;2022-12-18T15:01:55;42.40;;;21.20;;